createdAt,value
2022-11-13T00:00:57.770Z,20.50
2022-11-13T00:04:00.552Z,20.51
2022-11-13T00:07:03.420Z,20.51
2022-11-13T00:10:06.756Z,20.50
2022-11-13T00:13:09.463Z,20.46
2022-11-13T00:16:15.473Z,20.45
2022-11-13T00:19:18.615Z,20.45
2022-11-13T00:22:21.403Z,20.44
2022-11-13T00:25:24.212Z,20.44
2022-11-13T00:28:27.285Z,20.41
2022-11-13T00:31:31.871Z,20.39
2022-11-13T00:34:47.268Z,20.38
2022-11-13T00:37:51.007Z,20.38
2022-11-13T00:40:53.756Z,20.36
2022-11-13T00:43:56.595Z,20.37
2022-11-13T00:47:00.703Z,20.37
2022-11-13T00:50:03.815Z,20.35
2022-11-13T00:53:06.842Z,20.35
2022-11-13T00:56:09.674Z,20.35
2022-11-13T00:59:13.442Z,20.36
2022-11-13T01:02:17.641Z,20.37
2022-11-13T01:05:20.628Z,20.37
2022-11-13T01:08:23.443Z,20.38
2022-11-13T01:11:27.348Z,20.38
2022-11-13T01:14:30.179Z,20.35
2022-11-13T01:17:34.345Z,20.34
2022-11-13T01:20:37.641Z,20.33
2022-11-13T01:23:40.445Z,20.33
2022-11-13T01:26:43.269Z,20.34
2022-11-13T01:29:48.962Z,20.32
2022-11-13T01:32:53.077Z,20.32
2022-11-13T01:36:00.788Z,20.33
2022-11-13T01:39:03.692Z,20.34
2022-11-13T01:42:06.611Z,20.33
2022-11-13T01:45:27.994Z,20.33
2022-11-13T01:48:35.760Z,20.33
2022-11-13T01:51:40.827Z,20.34
2022-11-13T01:54:45.031Z,20.32
2022-11-13T01:57:47.797Z,20.34
2022-11-13T02:00:50.587Z,20.29
2022-11-13T02:03:55.765Z,20.38
2022-11-13T02:07:00.720Z,20.45
2022-11-13T02:10:03.596Z,20.56
2022-11-13T02:13:06.683Z,20.71
2022-11-13T02:16:11.503Z,20.80
2022-11-13T02:19:18.363Z,20.78
2022-11-13T02:22:23.843Z,20.83
2022-11-13T02:25:29.398Z,20.89
2022-11-13T02:28:32.160Z,20.92
2022-11-13T02:31:34.956Z,20.97
2022-11-13T02:34:37.741Z,20.96
2022-11-13T02:37:40.563Z,21.03
2022-11-13T02:40:44.761Z,20.99
2022-11-13T02:43:47.522Z,21.07
2022-11-13T02:46:50.304Z,21.07
2022-11-13T02:49:53.096Z,21.16
2022-11-13T02:52:55.947Z,21.13
2022-11-13T02:56:00.283Z,21.24
2022-11-13T02:59:03.101Z,21.18
2022-11-13T03:02:06.029Z,21.20
2022-11-13T03:05:13.630Z,21.25
2022-11-13T03:08:16.909Z,21.22
2022-11-13T03:11:21.111Z,21.22
2022-11-13T03:14:23.890Z,21.20
2022-11-13T03:17:26.662Z,21.25
2022-11-13T03:20:29.486Z,21.24
2022-11-13T03:23:32.230Z,21.19
2022-11-13T03:26:36.590Z,21.19
2022-11-13T03:29:39.372Z,21.17
2022-11-13T03:32:42.171Z,21.11
2022-11-13T03:35:47.158Z,21.11
2022-11-13T03:38:50.070Z,21.04
2022-11-13T03:41:54.274Z,21.03
2022-11-13T03:44:57.093Z,21.02
2022-11-13T03:47:59.859Z,20.98
2022-11-13T03:51:02.818Z,20.95
2022-11-13T03:54:05.668Z,20.92
2022-11-13T03:57:09.812Z,20.91
2022-11-13T04:00:13.304Z,20.86
2022-11-13T04:03:16.081Z,20.82
2022-11-13T04:06:18.861Z,20.79
2022-11-13T04:09:21.670Z,20.75
2022-11-13T04:12:26.803Z,20.74
2022-11-13T04:15:29.583Z,20.74
2022-11-13T04:18:32.478Z,20.74
2022-11-13T04:21:35.263Z,20.73
2022-11-13T04:24:38.025Z,20.75
2022-11-13T04:27:42.161Z,20.75
2022-11-13T04:30:44.940Z,20.78
2022-11-13T04:33:47.704Z,20.76
2022-11-13T04:36:50.444Z,20.75
2022-11-13T04:39:53.205Z,20.74
2022-11-13T04:42:56.359Z,20.75
2022-11-13T04:45:59.185Z,20.73
2022-11-13T04:49:01.978Z,20.74
2022-11-13T04:52:04.816Z,20.72
2022-11-13T04:55:07.839Z,20.72
2022-11-13T04:58:12.007Z,20.71
2022-11-13T05:01:14.854Z,20.70
2022-11-13T05:04:17.773Z,20.70
2022-11-13T05:07:20.571Z,20.66
2022-11-13T05:10:23.382Z,20.68
2022-11-13T05:13:27.581Z,20.66
2022-11-13T05:16:30.674Z,20.65
2022-11-13T05:19:33.846Z,20.65
2022-11-13T05:22:36.610Z,20.63
2022-11-13T05:25:39.409Z,20.63
2022-11-13T05:28:43.578Z,20.64
2022-11-13T05:31:46.431Z,20.62
2022-11-13T05:34:49.205Z,20.62
2022-11-13T05:37:57.577Z,20.64
2022-11-13T05:41:03.829Z,20.63
2022-11-13T05:44:08.074Z,20.64
2022-11-13T05:47:10.915Z,20.62
2022-11-13T05:50:13.730Z,20.62
2022-11-13T05:53:16.473Z,20.68
2022-11-13T05:56:20.277Z,20.66
2022-11-13T05:59:24.499Z,20.64
2022-11-13T06:02:27.287Z,20.65
2022-11-13T06:05:30.096Z,20.63
2022-11-13T06:08:32.866Z,20.61
2022-11-13T06:11:35.654Z,20.62
2022-11-13T06:14:39.815Z,20.65
2022-11-13T06:17:46.285Z,20.62
2022-11-13T06:20:49.033Z,20.62
2022-11-13T06:23:51.884Z,20.63
2022-11-13T06:26:54.727Z,20.63
2022-11-13T06:29:58.825Z,20.61
2022-11-13T06:33:01.613Z,20.63
2022-11-13T06:36:05.271Z,20.62
2022-11-13T06:39:09.031Z,20.60
2022-11-13T06:42:11.914Z,20.60
2022-11-13T06:45:16.146Z,20.60
2022-11-13T06:48:18.894Z,20.59
2022-11-13T06:51:22.609Z,20.59
2022-11-13T06:54:25.410Z,20.56
2022-11-13T06:57:28.311Z,20.60
2022-11-13T07:00:37.021Z,20.61
2022-11-13T07:03:41.463Z,20.59
2022-11-13T07:06:44.386Z,20.59
2022-11-13T07:09:47.238Z,20.59
2022-11-13T07:12:54.571Z,20.62
2022-11-13T07:16:15.849Z,20.62
2022-11-13T07:19:19.964Z,20.64
2022-11-13T07:22:22.774Z,20.63
2022-11-13T07:25:25.567Z,20.61
2022-11-13T07:28:28.572Z,20.62
2022-11-13T07:31:33.016Z,20.62
2022-11-13T07:34:35.735Z,20.63
2022-11-13T07:37:38.931Z,20.66
2022-11-13T07:40:41.732Z,20.63
2022-11-13T07:43:44.531Z,20.65
2022-11-13T07:46:48.735Z,20.64
2022-11-13T07:49:51.544Z,20.65
2022-11-13T07:52:56.478Z,20.66
2022-11-13T07:56:01.446Z,20.67
2022-11-13T07:59:04.211Z,20.63
2022-11-13T08:02:08.375Z,20.65
2022-11-13T08:05:11.234Z,20.67
2022-11-13T08:08:14.734Z,20.67
2022-11-13T08:11:17.560Z,20.69
2022-11-13T08:14:20.371Z,20.69
2022-11-13T08:17:24.558Z,20.73
2022-11-13T08:20:27.975Z,20.73
2022-11-13T08:23:31.150Z,20.74
2022-11-13T08:26:33.995Z,20.74
2022-11-13T08:29:38.036Z,20.72
2022-11-13T08:32:42.171Z,20.72
2022-11-13T08:35:52.878Z,20.73
2022-11-13T08:38:55.683Z,20.74
2022-11-13T08:41:58.458Z,20.73
2022-11-13T08:45:02.553Z,20.75
2022-11-13T08:48:07.464Z,20.75
2022-11-13T08:51:10.252Z,20.78
2022-11-13T08:54:12.998Z,20.78
2022-11-13T08:57:16.018Z,20.76
2022-11-13T09:00:19.328Z,20.73
2022-11-13T09:03:23.528Z,20.80
2022-11-13T09:06:26.525Z,20.80
2022-11-13T09:09:29.317Z,20.78
2022-11-13T09:12:32.061Z,20.80
2022-11-13T09:15:35.184Z,20.79
2022-11-13T09:18:39.331Z,20.78
2022-11-13T09:21:42.078Z,20.80
2022-11-13T09:24:44.874Z,20.79
2022-11-13T09:27:53.264Z,20.78
2022-11-13T09:30:56.083Z,20.82
2022-11-13T09:34:00.321Z,20.80
2022-11-13T09:37:03.095Z,20.80
2022-11-13T09:40:06.319Z,20.83
2022-11-13T09:43:15.219Z,20.85
2022-11-13T09:46:20.303Z,20.88
2022-11-13T09:49:27.475Z,20.89
2022-11-13T09:52:32.316Z,20.93
2022-11-13T09:55:39.684Z,20.92
2022-11-13T09:58:46.810Z,20.95
2022-11-13T10:01:52.583Z,21.03
2022-11-13T10:05:03.953Z,21.11
2022-11-13T10:08:08.830Z,21.25
2022-11-13T10:11:14.621Z,21.30
2022-11-13T10:14:19.776Z,21.31
2022-11-13T10:17:26.128Z,21.36
2022-11-13T10:20:34.609Z,21.50
2022-11-13T10:23:39.032Z,21.55
2022-11-13T10:26:41.934Z,21.63
2022-11-13T10:29:49.012Z,21.65
2022-11-13T10:32:52.824Z,21.69
2022-11-13T10:36:00.336Z,21.74
2022-11-13T10:39:06.009Z,21.76
2022-11-13T10:42:21.146Z,21.86
2022-11-13T10:45:24.063Z,21.97
2022-11-13T10:48:28.070Z,22.19
2022-11-13T10:51:35.313Z,22.17
2022-11-13T10:54:38.045Z,22.09
2022-11-13T10:57:40.875Z,22.16
2022-11-13T11:00:45.017Z,22.24
2022-11-13T11:03:51.319Z,22.08
2022-11-13T11:07:19.234Z,22.05
2022-11-13T11:10:23.414Z,22.05
2022-11-13T11:13:26.840Z,22.02
2022-11-13T11:16:29.765Z,21.97
2022-11-13T11:19:35.131Z,22.07
2022-11-13T11:22:40.897Z,21.95
2022-11-13T11:25:47.462Z,21.93
2022-11-13T11:28:52.977Z,21.65
2022-11-13T11:31:57.689Z,21.68
2022-11-13T11:35:06.005Z,21.58
2022-11-13T11:38:13.023Z,21.55
2022-11-13T11:41:17.094Z,21.55
2022-11-13T11:44:23.675Z,21.58
2022-11-13T11:47:26.514Z,21.52
2022-11-13T11:50:32.242Z,21.64
2022-11-13T11:53:42.889Z,21.56
2022-11-13T11:56:47.411Z,21.54
2022-11-13T11:59:59.609Z,21.71
2022-11-13T12:03:23.467Z,21.69
2022-11-13T12:06:34.153Z,21.57
2022-11-13T12:09:41.821Z,21.57
2022-11-13T12:12:49.742Z,21.52
2022-11-13T12:15:56.491Z,21.50
2022-11-13T12:19:03.649Z,21.51
2022-11-13T12:22:12.142Z,21.52
2022-11-13T12:25:19.661Z,21.50
2022-11-13T12:28:27.523Z,21.53
2022-11-13T12:31:39.425Z,21.53
2022-11-13T12:34:44.544Z,21.55
2022-11-13T12:37:51.674Z,21.70
2022-11-13T12:41:00.540Z,21.60
2022-11-13T12:44:11.142Z,21.69
2022-11-13T12:47:14.276Z,21.65
2022-11-13T12:50:32.124Z,21.59
2022-11-13T12:53:44.969Z,21.61
2022-11-13T12:56:49.358Z,21.58
2022-11-13T12:59:53.914Z,21.63
2022-11-13T13:03:04.474Z,21.62
2022-11-13T13:06:30.985Z,21.61
2022-11-13T13:09:41.075Z,21.64
2022-11-13T13:12:50.628Z,21.60
2022-11-13T13:15:56.330Z,21.62
2022-11-13T13:19:09.231Z,21.59
2022-11-13T13:22:12.999Z,21.57
2022-11-13T13:25:26.129Z,21.59
2022-11-13T13:28:32.191Z,21.56
2022-11-13T13:31:38.516Z,21.58
2022-11-13T13:34:45.375Z,21.57
2022-11-13T13:37:51.040Z,21.55
2022-11-13T13:41:02.570Z,21.58
2022-11-13T13:44:16.022Z,21.64
2022-11-13T13:47:22.574Z,21.61
2022-11-13T13:50:26.828Z,21.55
2022-11-13T13:53:31.169Z,21.54
2022-11-13T13:56:34.305Z,21.56
2022-11-13T13:59:38.645Z,21.55
2022-11-13T14:02:46.472Z,21.55
2022-11-13T14:05:49.334Z,21.56
2022-11-13T14:08:52.203Z,21.54
2022-11-13T14:11:59.746Z,21.56
2022-11-13T14:15:06.891Z,21.53
2022-11-13T14:18:10.294Z,21.50
2022-11-13T14:21:16.269Z,21.50
2022-11-13T14:24:22.373Z,21.50
2022-11-13T14:27:26.586Z,21.48
2022-11-13T14:30:32.007Z,21.48
2022-11-13T14:33:36.382Z,21.44
2022-11-13T14:36:40.912Z,21.47
2022-11-13T14:39:47.130Z,21.50
2022-11-13T14:42:52.037Z,21.52
2022-11-13T14:45:57.484Z,21.51
2022-11-13T14:49:00.309Z,21.52
2022-11-13T14:52:03.093Z,21.53
2022-11-13T14:55:15.716Z,21.51
2022-11-13T14:58:27.560Z,21.50
2022-11-13T15:01:32.591Z,21.52
2022-11-13T15:04:40.273Z,21.47
2022-11-13T15:07:43.573Z,21.49
2022-11-13T15:10:46.551Z,21.49
2022-11-13T15:13:50.149Z,21.46
2022-11-13T17:06:44.699Z,20.07
2022-11-13T17:09:55.163Z,20.13
2022-11-13T17:13:07.065Z,20.13
2022-11-13T17:16:10.238Z,20.19
2022-11-13T17:19:13.382Z,20.27
2022-11-13T17:22:17.940Z,20.29
2022-11-13T17:25:20.709Z,20.31
2022-11-13T17:28:23.435Z,20.34
2022-11-13T17:31:26.154Z,20.34
2022-11-13T17:34:29.008Z,20.35
2022-11-13T17:37:33.044Z,20.35
2022-11-13T17:40:35.766Z,20.34
2022-11-13T17:43:38.638Z,20.36
2022-11-13T17:46:41.375Z,20.36
2022-11-13T17:49:44.015Z,20.36
2022-11-13T17:52:48.107Z,20.44
2022-11-13T17:55:53.914Z,20.38
2022-11-13T17:58:56.675Z,20.38
2022-11-13T18:01:59.550Z,20.42
2022-11-13T18:05:04.264Z,20.39
2022-11-13T18:08:08.414Z,20.48
2022-11-13T18:11:12.113Z,20.44
2022-11-13T18:14:14.832Z,20.42
2022-11-13T18:17:17.554Z,20.40
2022-11-13T18:20:20.544Z,20.53
2022-11-13T18:23:24.615Z,20.55
2022-11-13T18:26:27.800Z,20.59
2022-11-13T18:29:30.567Z,20.57
2022-11-13T18:32:33.437Z,20.58
2022-11-13T18:35:36.195Z,20.59
2022-11-13T18:38:40.278Z,20.62
2022-11-13T18:41:43.184Z,20.62
2022-11-13T18:44:45.807Z,20.71
2022-11-13T18:47:48.505Z,20.69
2022-11-13T18:50:56.478Z,20.80
2022-11-13T18:54:02.405Z,20.73
2022-11-13T18:57:08.776Z,20.72
2022-11-13T19:00:12.817Z,20.73
2022-11-13T19:03:15.608Z,20.73
2022-11-13T19:06:20.606Z,20.72
2022-11-13T19:09:24.837Z,20.71
2022-11-13T19:12:27.532Z,20.71
2022-11-13T19:15:30.276Z,20.68
2022-11-13T19:18:32.940Z,20.69
2022-11-13T19:21:36.394Z,20.69
2022-11-13T19:24:40.527Z,20.66
2022-11-13T19:27:43.296Z,20.69
2022-11-13T19:30:47.561Z,20.69
2022-11-13T19:33:54.906Z,20.66
2022-11-13T19:36:57.642Z,20.67
2022-11-13T19:40:01.851Z,20.69
2022-11-13T19:43:04.568Z,20.70
2022-11-13T19:46:07.827Z,20.70
2022-11-13T19:49:11.095Z,20.70
2022-11-13T19:52:13.848Z,20.71
2022-11-13T19:55:18.018Z,20.74
2022-11-13T19:58:20.711Z,20.74
2022-11-13T20:01:24.761Z,20.74
2022-11-13T20:04:27.632Z,20.74
2022-11-13T20:07:30.458Z,20.72
2022-11-13T20:10:34.837Z,20.72
2022-11-13T20:13:38.631Z,20.73
2022-11-13T20:16:41.307Z,20.72
2022-11-13T20:19:44.085Z,20.75
2022-11-13T20:22:46.840Z,20.73
2022-11-13T20:25:54.368Z,20.73
2022-11-13T20:28:57.201Z,20.74
2022-11-13T20:32:00.029Z,20.73
2022-11-13T20:35:02.749Z,20.69
2022-11-13T20:38:05.696Z,20.70
2022-11-13T20:41:11.922Z,20.71
2022-11-13T20:44:15.852Z,20.72
2022-11-13T20:47:18.555Z,20.72
2022-11-13T20:50:21.280Z,20.70
2022-11-13T20:53:24.256Z,20.73
2022-11-13T20:56:28.380Z,20.71
2022-11-13T20:59:31.322Z,20.71
2022-11-13T21:02:34.021Z,20.72
2022-11-13T21:05:36.781Z,20.72
2022-11-13T21:08:39.879Z,20.73
2022-11-13T21:11:44.005Z,20.74
2022-11-13T21:14:46.789Z,20.72
2022-11-13T21:17:49.460Z,20.73
2022-11-13T21:20:52.234Z,20.73
2022-11-13T21:23:56.721Z,20.75
2022-11-13T21:27:00.849Z,20.74
2022-11-13T21:30:03.627Z,20.74
2022-11-13T21:33:06.381Z,20.74
2022-11-13T21:36:11.005Z,20.74
2022-11-13T21:39:13.722Z,20.75
2022-11-13T21:42:17.773Z,20.77
2022-11-13T21:45:20.498Z,20.88
2022-11-13T21:48:23.216Z,20.94
2022-11-13T21:51:26.039Z,21.02
2022-11-13T21:54:28.827Z,21.11
2022-11-13T21:57:32.955Z,21.20
2022-11-13T22:00:35.693Z,21.22
2022-11-13T22:03:38.554Z,21.30
2022-11-13T22:06:41.300Z,21.32
2022-11-13T22:09:44.000Z,21.56
2022-11-13T22:12:48.100Z,21.41
2022-11-13T22:15:50.998Z,21.48
2022-11-13T22:18:54.843Z,21.52
2022-11-13T22:21:57.530Z,21.64
2022-11-13T22:25:00.209Z,21.66
2022-11-13T22:28:04.304Z,21.74
2022-11-13T22:31:07.129Z,21.84
2022-11-13T22:34:09.805Z,21.85
2022-11-13T22:37:12.513Z,21.97
2022-11-13T22:40:15.245Z,21.94
2022-11-13T22:43:19.315Z,22.09
2022-11-13T22:46:22.892Z,22.01
2022-11-13T22:49:25.562Z,22.07
2022-11-13T22:52:28.670Z,21.95
2022-11-13T22:55:32.089Z,21.66
2022-11-13T22:58:36.303Z,21.48
2022-11-13T23:01:40.035Z,21.38
2022-11-13T23:04:42.767Z,21.38
2022-11-13T23:07:45.491Z,21.31
2022-11-13T23:10:52.472Z,21.23
2022-11-13T23:13:57.678Z,21.22
2022-11-13T23:17:00.412Z,21.15
2022-11-13T23:20:03.124Z,21.11
2022-11-13T23:23:05.875Z,21.19
2022-11-13T23:26:09.250Z,21.06
2022-11-13T23:29:13.501Z,20.99
2022-11-13T23:32:16.199Z,21.00
2022-11-13T23:35:19.001Z,20.92
2022-11-13T23:38:21.752Z,20.92
2022-11-13T23:41:24.445Z,20.77
2022-11-13T23:44:28.470Z,20.77
2022-11-13T23:47:31.160Z,20.71
2022-11-13T23:50:33.843Z,20.59
2022-11-13T23:53:36.561Z,20.60
2022-11-13T23:56:39.277Z,20.59
2022-11-13T23:59:43.390Z,20.55
